Gulkana, Gulkana Airport (PAGK)

NameGulkana Airport
CityGulkana
CountryUnited States
ICAOPAGK
IATAGKN
Altitude483 m
CoordinatesGoogle Map
Live Air TrafficLiveATC.net
METARPAGK 180153Z AUTO 00000KT 10SM CLR M04/M08 A2911 RMK AO2 SLP893 T10441078 TSNO $
2019-10-18 01:53:00 Wind: North (0°) 0 m/s - Visibility: 16093.4 m - Temperature: -4 °C - Dew point: -8 °C - Humidity: 74% - Pressure: 985.78 hPa
Statistics

The table below shows the detailed information of all flights to/from Gulkana, Gulkana Airport (PAGK).